sensor_id;sensor_type;location;lat;lon;timestamp;P1;durP1;ratioP1;P2;durP2;ratioP2
70420;SDS011;57848;51.938;15.520;2023-03-09T00:00:53;22.33;;;10.43;;
70420;SDS011;57848;51.938;15.520;2023-03-09T00:03:18;22.60;;;8.87;;
70420;SDS011;57848;51.938;15.520;2023-03-09T00:05:51;22.80;;;9.47;;
70420;SDS011;57848;51.938;15.520;2023-03-09T00:08:18;19.58;;;8.30;;
70420;SDS011;57848;51.938;15.520;2023-03-09T00:10:44;21.90;;;9.63;;
70420;SDS011;57848;51.938;15.520;2023-03-09T00:13:09;23.07;;;9.93;;
70420;SDS011;57848;51.938;15.520;2023-03-09T00:15:35;24.40;;;9.90;;
70420;SDS011;57848;51.938;15.520;2023-03-09T00:18:00;26.17;;;11.20;;
70420;SDS011;57848;51.938;15.520;2023-03-09T00:20:26;19.80;;;8.73;;
70420;SDS011;57848;51.938;15.520;2023-03-09T00:22:52;20.00;;;9.03;;
70420;SDS011;57848;51.938;15.520;2023-03-09T00:25:19;22.15;;;9.05;;
70420;SDS011;57848;51.938;15.520;2023-03-09T00:27:49;22.20;;;9.27;;
70420;SDS011;57848;51.938;15.520;2023-03-09T00:30:17;20.40;;;9.32;;
70420;SDS011;57848;51.938;15.520;2023-03-09T00:32:43;20.80;;;9.25;;
70420;SDS011;57848;51.938;15.520;2023-03-09T00:35:09;25.97;;;10.43;;
70420;SDS011;57848;51.938;15.520;2023-03-09T00:37:35;19.55;;;8.80;;
70420;SDS011;57848;51.938;15.520;2023-03-09T00:40:02;20.43;;;8.93;;
70420;SDS011;57848;51.938;15.520;2023-03-09T00:42:31;24.98;;;9.18;;
70420;SDS011;57848;51.938;15.520;2023-03-09T00:44:58;22.55;;;9.35;;
70420;SDS011;57848;51.938;15.520;2023-03-09T00:47:26;21.85;;;9.98;;
70420;SDS011;57848;51.938;15.520;2023-03-09T00:49:52;20.10;;;8.50;;
70420;SDS011;57848;51.938;15.520;2023-03-09T00:52:17;18.23;;;8.00;;
70420;SDS011;57848;51.938;15.520;2023-03-09T00:54:42;20.70;;;8.20;;
70420;SDS011;57848;51.938;15.520;2023-03-09T00:57:08;19.77;;;8.53;;
70420;SDS011;57848;51.938;15.520;2023-03-09T00:59:34;19.40;;;8.10;;
70420;SDS011;57848;51.938;15.520;2023-03-09T01:02:00;22.00;;;9.05;;
70420;SDS011;57848;51.938;15.520;2023-03-09T01:04:26;20.70;;;7.90;;
70420;SDS011;57848;51.938;15.520;2023-03-09T01:06:54;24.77;;;9.33;;
70420;SDS011;57848;51.938;15.520;2023-03-09T01:09:20;19.33;;;9.02;;
70420;SDS011;57848;51.938;15.520;2023-03-09T01:11:46;19.60;;;8.07;;
70420;SDS011;57848;51.938;15.520;2023-03-09T01:14:11;21.60;;;8.60;;
70420;SDS011;57848;51.938;15.520;2023-03-09T01:16:37;20.43;;;8.63;;
70420;SDS011;57848;51.938;15.520;2023-03-09T01:19:02;23.55;;;9.73;;
70420;SDS011;57848;51.938;15.520;2023-03-09T01:21:28;19.03;;;8.23;;
70420;SDS011;57848;51.938;15.520;2023-03-09T01:23:54;21.25;;;8.85;;
70420;SDS011;57848;51.938;15.520;2023-03-09T01:26:19;21.00;;;9.47;;
70420;SDS011;57848;51.938;15.520;2023-03-09T01:28:45;18.93;;;8.20;;
70420;SDS011;57848;51.938;15.520;2023-03-09T01:31:12;20.38;;;9.00;;
70420;SDS011;57848;51.938;15.520;2023-03-09T01:33:41;21.75;;;9.73;;
70420;SDS011;57848;51.938;15.520;2023-03-09T01:36:08;21.83;;;9.17;;
70420;SDS011;57848;51.938;15.520;2023-03-09T01:38:36;21.40;;;10.00;;
70420;SDS011;57848;51.938;15.520;2023-03-09T01:41:02;22.23;;;9.60;;
70420;SDS011;57848;51.938;15.520;2023-03-09T01:51:39;22.58;;;9.80;;
70420;SDS011;57848;51.938;15.520;2023-03-09T02:00:22;24.05;;;10.02;;
70420;SDS011;57848;51.938;15.520;2023-03-09T02:03:05;24.63;;;9.93;;
70420;SDS011;57848;51.938;15.520;2023-03-09T02:05:44;24.38;;;10.00;;
70420;SDS011;57848;51.938;15.520;2023-03-09T02:08:26;24.40;;;11.03;;
70420;SDS011;57848;51.938;15.520;2023-03-09T02:11:00;23.95;;;10.18;;
70420;SDS011;57848;51.938;15.520;2023-03-09T02:13:36;24.23;;;10.73;;
70420;SDS011;57848;51.938;15.520;2023-03-09T02:16:05;22.17;;;10.35;;
70420;SDS011;57848;51.938;15.520;2023-03-09T02:18:31;25.77;;;10.60;;
70420;SDS011;57848;51.938;15.520;2023-03-09T02:21:01;26.60;;;10.95;;
70420;SDS011;57848;51.938;15.520;2023-03-09T02:28:48;25.58;;;10.02;;
70420;SDS011;57848;51.938;15.520;2023-03-09T02:31:14;25.83;;;11.23;;
70420;SDS011;57848;51.938;15.520;2023-03-09T02:33:40;25.53;;;10.57;;
70420;SDS011;57848;51.938;15.520;2023-03-09T02:36:06;25.35;;;10.93;;
70420;SDS011;57848;51.938;15.520;2023-03-09T02:38:37;23.17;;;11.00;;
70420;SDS011;57848;51.938;15.520;2023-03-09T02:41:04;26.15;;;10.98;;
70420;SDS011;57848;51.938;15.520;2023-03-09T02:43:49;23.97;;;10.00;;
70420;SDS011;57848;51.938;15.520;2023-03-09T02:46:17;23.70;;;10.77;;
70420;SDS011;57848;51.938;15.520;2023-03-09T02:48:43;26.02;;;11.50;;
70420;SDS011;57848;51.938;15.520;2023-03-09T02:51:08;23.77;;;10.13;;
70420;SDS011;57848;51.938;15.520;2023-03-09T02:53:34;25.57;;;10.03;;
70420;SDS011;57848;51.938;15.520;2023-03-09T02:56:00;24.20;;;10.55;;
70420;SDS011;57848;51.938;15.520;2023-03-09T02:58:25;23.77;;;10.65;;
70420;SDS011;57848;51.938;15.520;2023-03-09T03:00:51;26.27;;;11.00;;
70420;SDS011;57848;51.938;15.520;2023-03-09T03:03:16;26.23;;;11.48;;
70420;SDS011;57848;51.938;15.520;2023-03-09T03:05:46;28.23;;;11.83;;
70420;SDS011;57848;51.938;15.520;2023-03-09T03:08:12;26.13;;;11.43;;
70420;SDS011;57848;51.938;15.520;2023-03-09T03:10:38;27.27;;;12.25;;
70420;SDS011;57848;51.938;15.520;2023-03-09T03:13:03;23.43;;;10.90;;
70420;SDS011;57848;51.938;15.520;2023-03-09T03:15:29;26.80;;;11.50;;
70420;SDS011;57848;51.938;15.520;2023-03-09T03:17:55;25.40;;;11.13;;
70420;SDS011;57848;51.938;15.520;2023-03-09T03:20:21;27.00;;;11.13;;
70420;SDS011;57848;51.938;15.520;2023-03-09T03:22:47;27.00;;;10.13;;
70420;SDS011;57848;51.938;15.520;2023-03-09T03:25:15;28.50;;;11.90;;
70420;SDS011;57848;51.938;15.520;2023-03-09T03:27:44;27.08;;;11.45;;
70420;SDS011;57848;51.938;15.520;2023-03-09T03:30:11;27.30;;;11.63;;
70420;SDS011;57848;51.938;15.520;2023-03-09T03:32:39;26.90;;;10.88;;
70420;SDS011;57848;51.938;15.520;2023-03-09T03:35:05;28.93;;;11.37;;
70420;SDS011;57848;51.938;15.520;2023-03-09T03:37:35;26.30;;;10.65;;
70420;SDS011;57848;51.938;15.520;2023-03-09T03:40:01;23.38;;;10.52;;
70420;SDS011;57848;51.938;15.520;2023-03-09T03:42:31;25.13;;;10.82;;
70420;SDS011;57848;51.938;15.520;2023-03-09T03:44:57;25.30;;;10.50;;
70420;SDS011;57848;51.938;15.520;2023-03-09T03:47:22;27.33;;;11.33;;
70420;SDS011;57848;51.938;15.520;2023-03-09T03:49:47;24.00;;;10.27;;
70420;SDS011;57848;51.938;15.520;2023-03-09T03:52:15;23.48;;;10.60;;
70420;SDS011;57848;51.938;15.520;2023-03-09T03:54:42;25.92;;;10.80;;
70420;SDS011;57848;51.938;15.520;2023-03-09T03:57:07;26.07;;;10.93;;
70420;SDS011;57848;51.938;15.520;2023-03-09T03:59:32;26.67;;;10.97;;
70420;SDS011;57848;51.938;15.520;2023-03-09T04:01:58;24.50;;;10.57;;
70420;SDS011;57848;51.938;15.520;2023-03-09T04:04:26;26.00;;;10.95;;
70420;SDS011;57848;51.938;15.520;2023-03-09T04:06:57;27.40;;;12.25;;
70420;SDS011;57848;51.938;15.520;2023-03-09T04:09:24;28.00;;;11.25;;
70420;SDS011;57848;51.938;15.520;2023-03-09T04:11:50;24.30;;;10.50;;
70420;SDS011;57848;51.938;15.520;2023-03-09T04:14:16;24.92;;;11.20;;
70420;SDS011;57848;51.938;15.520;2023-03-09T04:16:41;21.67;;;9.60;;
70420;SDS011;57848;51.938;15.520;2023-03-09T04:19:08;24.75;;;9.82;;
70420;SDS011;57848;51.938;15.520;2023-03-09T04:21:36;24.75;;;10.85;;
70420;SDS011;57848;51.938;15.520;2023-03-09T04:24:01;28.80;;;10.93;;
70420;SDS011;57848;51.938;15.520;2023-03-09T04:26:26;24.77;;;10.13;;
70420;SDS011;57848;51.938;15.520;2023-03-09T04:29:06;24.65;;;10.30;;
70420;SDS011;57848;51.938;15.520;2023-03-09T04:31:32;21.75;;;10.18;;
70420;SDS011;57848;51.938;15.520;2023-03-09T04:33:59;25.73;;;10.10;;
70420;SDS011;57848;51.938;15.520;2023-03-09T04:36:25;24.95;;;10.35;;
70420;SDS011;57848;51.938;15.520;2023-03-09T04:38:51;26.17;;;11.50;;
70420;SDS011;57848;51.938;15.520;2023-03-09T04:41:18;23.60;;;9.60;;
70420;SDS011;57848;51.938;15.520;2023-03-09T04:43:49;24.43;;;10.50;;
70420;SDS011;57848;51.938;15.520;2023-03-09T04:46:15;22.77;;;9.85;;
70420;SDS011;57848;51.938;15.520;2023-03-09T04:48:41;21.38;;;8.82;;
70420;SDS011;57848;51.938;15.520;2023-03-09T04:51:07;23.63;;;8.82;;
70420;SDS011;57848;51.938;15.520;2023-03-09T04:53:33;22.23;;;8.90;;
70420;SDS011;57848;51.938;15.520;2023-03-09T04:55:59;21.05;;;8.27;;
70420;SDS011;57848;51.938;15.520;2023-03-09T04:58:25;20.80;;;8.53;;
70420;SDS011;57848;51.938;15.520;2023-03-09T05:00:51;20.80;;;8.30;;
70420;SDS011;57848;51.938;15.520;2023-03-09T05:03:19;19.67;;;7.90;;
70420;SDS011;57848;51.938;15.520;2023-03-09T05:05:51;20.20;;;7.75;;
70420;SDS011;57848;51.938;15.520;2023-03-09T05:08:19;19.10;;;7.97;;
70420;SDS011;57848;51.938;15.520;2023-03-09T05:10:44;20.13;;;8.52;;
70420;SDS011;57848;51.938;15.520;2023-03-09T05:13:11;21.37;;;7.93;;
70420;SDS011;57848;51.938;15.520;2023-03-09T05:15:37;22.33;;;8.10;;
70420;SDS011;57848;51.938;15.520;2023-03-09T05:18:04;21.13;;;8.55;;
70420;SDS011;57848;51.938;15.520;2023-03-09T05:20:31;21.45;;;8.35;;
70420;SDS011;57848;51.938;15.520;2023-03-09T05:23:00;22.13;;;9.07;;
70420;SDS011;57848;51.938;15.520;2023-03-09T05:25:26;20.55;;;8.70;;
70420;SDS011;57848;51.938;15.520;2023-03-09T05:27:53;19.52;;;8.85;;
70420;SDS011;57848;51.938;15.520;2023-03-09T05:30:19;20.77;;;8.85;;
70420;SDS011;57848;51.938;15.520;2023-03-09T05:32:46;20.08;;;7.55;;
70420;SDS011;57848;51.938;15.520;2023-03-09T05:35:11;23.00;;;8.37;;
70420;SDS011;57848;51.938;15.520;2023-03-09T05:37:38;22.65;;;9.07;;
70420;SDS011;57848;51.938;15.520;2023-03-09T05:40:11;23.60;;;9.10;;
70420;SDS011;57848;51.938;15.520;2023-03-09T05:42:39;20.58;;;8.75;;
70420;SDS011;57848;51.938;15.520;2023-03-09T05:45:06;22.88;;;9.48;;
70420;SDS011;57848;51.938;15.520;2023-03-09T05:47:32;25.53;;;11.00;;
70420;SDS011;57848;51.938;15.520;2023-03-09T05:49:57;23.43;;;10.20;;
70420;SDS011;57848;51.938;15.520;2023-03-09T05:52:23;24.73;;;9.87;;
70420;SDS011;57848;51.938;15.520;2023-03-09T05:54:49;26.20;;;9.65;;
70420;SDS011;57848;51.938;15.520;2023-03-09T05:57:16;24.40;;;10.03;;
70420;SDS011;57848;51.938;15.520;2023-03-09T05:59:46;27.63;;;10.32;;
70420;SDS011;57848;51.938;15.520;2023-03-09T06:02:13;28.35;;;11.73;;
70420;SDS011;57848;51.938;15.520;2023-03-09T06:04:40;28.17;;;10.15;;
70420;SDS011;57848;51.938;15.520;2023-03-09T06:07:07;23.52;;;10.80;;
70420;SDS011;57848;51.938;15.520;2023-03-09T06:09:40;23.53;;;9.70;;
70420;SDS011;57848;51.938;15.520;2023-03-09T06:12:11;27.02;;;11.75;;
70420;SDS011;57848;51.938;15.520;2023-03-09T06:14:40;29.52;;;12.70;;
70420;SDS011;57848;51.938;15.520;2023-03-09T06:17:07;29.38;;;11.95;;
70420;SDS011;57848;51.938;15.520;2023-03-09T06:19:33;24.40;;;10.30;;
70420;SDS011;57848;51.938;15.520;2023-03-09T06:21:58;28.42;;;11.25;;
70420;SDS011;57848;51.938;15.520;2023-03-09T06:24:24;27.93;;;10.87;;
70420;SDS011;57848;51.938;15.520;2023-03-09T06:26:50;27.75;;;11.50;;
70420;SDS011;57848;51.938;15.520;2023-03-09T06:29:26;28.27;;;12.32;;
70420;SDS011;57848;51.938;15.520;2023-03-09T06:31:51;29.07;;;12.20;;
70420;SDS011;57848;51.938;15.520;2023-03-09T06:34:17;28.85;;;12.50;;
70420;SDS011;57848;51.938;15.520;2023-03-09T06:36:43;25.70;;;10.95;;
70420;SDS011;57848;51.938;15.520;2023-03-09T06:39:10;27.90;;;11.77;;
70420;SDS011;57848;51.938;15.520;2023-03-09T06:41:38;29.27;;;12.57;;
70420;SDS011;57848;51.938;15.520;2023-03-09T06:44:10;30.97;;;12.13;;
70420;SDS011;57848;51.938;15.520;2023-03-09T06:46:36;26.65;;;11.82;;
70420;SDS011;57848;51.938;15.520;2023-03-09T06:49:02;29.53;;;12.27;;
70420;SDS011;57848;51.938;15.520;2023-03-09T06:51:29;25.63;;;12.60;;
70420;SDS011;57848;51.938;15.520;2023-03-09T06:53:54;23.57;;;11.47;;
70420;SDS011;57848;51.938;15.520;2023-03-09T06:56:25;26.17;;;11.52;;
70420;SDS011;57848;51.938;15.520;2023-03-09T06:58:52;26.67;;;11.80;;
70420;SDS011;57848;51.938;15.520;2023-03-09T07:01:19;25.85;;;11.43;;
70420;SDS011;57848;51.938;15.520;2023-03-09T07:03:44;27.90;;;12.63;;
70420;SDS011;57848;51.938;15.520;2023-03-09T07:06:10;26.58;;;11.38;;
70420;SDS011;57848;51.938;15.520;2023-03-09T07:08:36;27.90;;;12.20;;
70420;SDS011;57848;51.938;15.520;2023-03-09T07:11:02;26.77;;;12.35;;
70420;SDS011;57848;51.938;15.520;2023-03-09T07:13:29;25.83;;;11.73;;
70420;SDS011;57848;51.938;15.520;2023-03-09T07:15:55;26.02;;;11.52;;
70420;SDS011;57848;51.938;15.520;2023-03-09T07:18:20;26.67;;;11.85;;
70420;SDS011;57848;51.938;15.520;2023-03-09T07:20:46;26.07;;;11.80;;
70420;SDS011;57848;51.938;15.520;2023-03-09T07:23:11;27.80;;;11.87;;
70420;SDS011;57848;51.938;15.520;2023-03-09T07:25:37;28.02;;;11.95;;
70420;SDS011;57848;51.938;15.520;2023-03-09T07:28:03;24.40;;;11.53;;
70420;SDS011;57848;51.938;15.520;2023-03-09T07:30:30;28.48;;;12.38;;
70420;SDS011;57848;51.938;15.520;2023-03-09T07:32:56;28.02;;;12.50;;
70420;SDS011;57848;51.938;15.520;2023-03-09T07:35:22;24.73;;;11.20;;
70420;SDS011;57848;51.938;15.520;2023-03-09T07:37:48;22.30;;;9.93;;
70420;SDS011;57848;51.938;15.520;2023-03-09T07:40:13;22.07;;;10.40;;
70420;SDS011;57848;51.938;15.520;2023-03-09T07:42:39;22.17;;;10.60;;
70420;SDS011;57848;51.938;15.520;2023-03-09T07:45:15;24.00;;;11.33;;
70420;SDS011;57848;51.938;15.520;2023-03-09T07:47:40;21.70;;;10.25;;
70420;SDS011;57848;51.938;15.520;2023-03-09T07:50:06;26.23;;;10.80;;
70420;SDS011;57848;51.938;15.520;2023-03-09T07:52:31;23.30;;;11.15;;
70420;SDS011;57848;51.938;15.520;2023-03-09T07:54:57;24.30;;;11.10;;
70420;SDS011;57848;51.938;15.520;2023-03-09T07:57:23;25.13;;;10.38;;
70420;SDS011;57848;51.938;15.520;2023-03-09T07:59:52;24.13;;;10.97;;
70420;SDS011;57848;51.938;15.520;2023-03-09T08:02:19;23.75;;;11.27;;
70420;SDS011;57848;51.938;15.520;2023-03-09T08:04:45;24.70;;;11.10;;
70420;SDS011;57848;51.938;15.520;2023-03-09T08:07:10;22.57;;;10.47;;
70420;SDS011;57848;51.938;15.520;2023-03-09T08:09:36;25.25;;;12.10;;
70420;SDS011;57848;51.938;15.520;2023-03-09T08:12:02;23.67;;;11.10;;
70420;SDS011;57848;51.938;15.520;2023-03-09T08:14:28;24.52;;;11.73;;
70420;SDS011;57848;51.938;15.520;2023-03-09T08:16:57;24.00;;;11.87;;
70420;SDS011;57848;51.938;15.520;2023-03-09T08:19:30;22.75;;;10.75;;
70420;SDS011;57848;51.938;15.520;2023-03-09T08:21:56;24.35;;;10.98;;
70420;SDS011;57848;51.938;15.520;2023-03-09T08:24:21;24.23;;;11.13;;
70420;SDS011;57848;51.938;15.520;2023-03-09T08:26:47;25.75;;;12.07;;
70420;SDS011;57848;51.938;15.520;2023-03-09T08:29:13;22.57;;;11.17;;
70420;SDS011;57848;51.938;15.520;2023-03-09T08:31:38;23.90;;;10.67;;
70420;SDS011;57848;51.938;15.520;2023-03-09T08:34:03;20.63;;;10.35;;
70420;SDS011;57848;51.938;15.520;2023-03-09T08:36:29;21.80;;;10.73;;
70420;SDS011;57848;51.938;15.520;2023-03-09T08:38:55;19.98;;;10.07;;
70420;SDS011;57848;51.938;15.520;2023-03-09T08:41:20;22.93;;;11.53;;
70420;SDS011;57848;51.938;15.520;2023-03-09T08:43:47;23.38;;;10.95;;
70420;SDS011;57848;51.938;15.520;2023-03-09T08:46:12;22.57;;;10.63;;
70420;SDS011;57848;51.938;15.520;2023-03-09T08:48:38;23.77;;;11.63;;
70420;SDS011;57848;51.938;15.520;2023-03-09T08:51:06;21.08;;;10.05;;
70420;SDS011;57848;51.938;15.520;2023-03-09T08:53:34;22.73;;;10.23;;
70420;SDS011;57848;51.938;15.520;2023-03-09T08:56:02;19.75;;;9.88;;
70420;SDS011;57848;51.938;15.520;2023-03-09T08:58:31;22.40;;;10.60;;
70420;SDS011;57848;51.938;15.520;2023-03-09T09:00:58;22.10;;;10.57;;
70420;SDS011;57848;51.938;15.520;2023-03-09T09:03:25;22.63;;;10.88;;
70420;SDS011;57848;51.938;15.520;2023-03-09T09:05:52;20.80;;;9.83;;
70420;SDS011;57848;51.938;15.520;2023-03-09T09:08:18;20.55;;;9.93;;
70420;SDS011;57848;51.938;15.520;2023-03-09T09:10:44;32.47;;;15.95;;
70420;SDS011;57848;51.938;15.520;2023-03-09T09:13:10;22.27;;;11.23;;
70420;SDS011;57848;51.938;15.520;2023-03-09T09:15:36;23.73;;;12.88;;
70420;SDS011;57848;51.938;15.520;2023-03-09T09:18:03;21.83;;;11.35;;
70420;SDS011;57848;51.938;15.520;2023-03-09T09:20:28;23.37;;;12.00;;
70420;SDS011;57848;51.938;15.520;2023-03-09T09:22:54;27.30;;;14.17;;
70420;SDS011;57848;51.938;15.520;2023-03-09T09:25:19;24.07;;;12.63;;
70420;SDS011;57848;51.938;15.520;2023-03-09T09:27:45;25.80;;;13.73;;
70420;SDS011;57848;51.938;15.520;2023-03-09T09:30:10;25.93;;;13.40;;
70420;SDS011;57848;51.938;15.520;2023-03-09T09:32:37;25.30;;;13.57;;
70420;SDS011;57848;51.938;15.520;2023-03-09T09:35:03;27.85;;;13.32;;
70420;SDS011;57848;51.938;15.520;2023-03-09T09:37:29;26.63;;;13.60;;
70420;SDS011;57848;51.938;15.520;2023-03-09T09:39:55;25.30;;;12.73;;
70420;SDS011;57848;51.938;15.520;2023-03-09T09:42:26;25.17;;;12.23;;
70420;SDS011;57848;51.938;15.520;2023-03-09T09:44:54;23.20;;;12.50;;
70420;SDS011;57848;51.938;15.520;2023-03-09T09:47:23;25.33;;;13.55;;
70420;SDS011;57848;51.938;15.520;2023-03-09T09:49:52;26.20;;;13.18;;
70420;SDS011;57848;51.938;15.520;2023-03-09T09:55:26;29.80;;;13.38;;
70420;SDS011;57848;51.938;15.520;2023-03-09T09:58:01;30.03;;;14.00;;
70420;SDS011;57848;51.938;15.520;2023-03-09T10:14:11;28.08;;;14.52;;
70420;SDS011;57848;51.938;15.520;2023-03-09T10:16:59;24.60;;;12.98;;
70420;SDS011;57848;51.938;15.520;2023-03-09T10:19:34;24.87;;;13.03;;
70420;SDS011;57848;51.938;15.520;2023-03-09T10:24:41;23.90;;;12.13;;
70420;SDS011;57848;51.938;15.520;2023-03-09T10:27:23;23.50;;;11.93;;
70420;SDS011;57848;51.938;15.520;2023-03-09T10:38:29;22.95;;;11.63;;
70420;SDS011;57848;51.938;15.520;2023-03-09T10:40:57;22.20;;;11.90;;
70420;SDS011;57848;51.938;15.520;2023-03-09T10:43:27;23.90;;;12.02;;
70420;SDS011;57848;51.938;15.520;2023-03-09T10:45:55;23.02;;;12.68;;
70420;SDS011;57848;51.938;15.520;2023-03-09T10:48:36;24.20;;;13.05;;
70420;SDS011;57848;51.938;15.520;2023-03-09T10:51:02;22.17;;;11.93;;
70420;SDS011;57848;51.938;15.520;2023-03-09T10:53:40;21.65;;;11.32;;
70420;SDS011;57848;51.938;15.520;2023-03-09T10:58:40;22.10;;;11.93;;
70420;SDS011;57848;51.938;15.520;2023-03-09T11:03:40;21.50;;;11.68;;
70420;SDS011;57848;51.938;15.520;2023-03-09T11:11:45;20.25;;;11.25;;
70420;SDS011;57848;51.938;15.520;2023-03-09T11:14:25;20.65;;;9.95;;
70420;SDS011;57848;51.938;15.520;2023-03-09T11:16:54;22.17;;;11.43;;
70420;SDS011;57848;51.938;15.520;2023-03-09T11:19:21;20.60;;;11.73;;
70420;SDS011;57848;51.938;15.520;2023-03-09T11:21:51;18.37;;;10.17;;
70420;SDS011;57848;51.938;15.520;2023-03-09T11:24:20;19.45;;;10.35;;
70420;SDS011;57848;51.938;15.520;2023-03-09T11:26:50;21.40;;;10.98;;
70420;SDS011;57848;51.938;15.520;2023-03-09T11:29:27;19.97;;;10.27;;
70420;SDS011;57848;51.938;15.520;2023-03-09T11:32:01;20.98;;;11.00;;
70420;SDS011;57848;51.938;15.520;2023-03-09T11:34:31;21.05;;;10.45;;
70420;SDS011;57848;51.938;15.520;2023-03-09T11:39:33;19.40;;;10.20;;
70420;SDS011;57848;51.938;15.520;2023-03-09T11:42:04;20.73;;;10.35;;
70420;SDS011;57848;51.938;15.520;2023-03-09T11:44:37;18.88;;;10.13;;
70420;SDS011;57848;51.938;15.520;2023-03-09T11:47:23;19.42;;;11.60;;
70420;SDS011;57848;51.938;15.520;2023-03-09T11:49:53;19.63;;;10.27;;
70420;SDS011;57848;51.938;15.520;2023-03-09T11:52:35;18.57;;;10.03;;
70420;SDS011;57848;51.938;15.520;2023-03-09T11:55:06;20.45;;;10.93;;
70420;SDS011;57848;51.938;15.520;2023-03-09T11:57:39;18.85;;;10.35;;
70420;SDS011;57848;51.938;15.520;2023-03-09T12:00:10;17.92;;;9.95;;
70420;SDS011;57848;51.938;15.520;2023-03-09T12:05:20;20.13;;;10.50;;
70420;SDS011;57848;51.938;15.520;2023-03-09T12:07:58;19.60;;;10.32;;
70420;SDS011;57848;51.938;15.520;2023-03-09T12:10:33;19.20;;;10.07;;
70420;SDS011;57848;51.938;15.520;2023-03-09T12:13:09;20.83;;;10.13;;
70420;SDS011;57848;51.938;15.520;2023-03-09T12:15:55;21.48;;;10.40;;
70420;SDS011;57848;51.938;15.520;2023-03-09T12:18:28;18.80;;;9.97;;
70420;SDS011;57848;51.938;15.520;2023-03-09T12:20:57;21.35;;;10.85;;
70420;SDS011;57848;51.938;15.520;2023-03-09T12:28:36;22.70;;;12.20;;
70420;SDS011;57848;51.938;15.520;2023-03-09T12:31:03;20.20;;;10.50;;
70420;SDS011;57848;51.938;15.520;2023-03-09T12:34:37;24.83;;;11.93;;
70420;SDS011;57848;51.938;15.520;2023-03-09T12:36:25;21.15;;;11.05;;
70420;SDS011;57848;51.938;15.520;2023-03-09T12:49:49;20.90;;;11.75;;
70420;SDS011;57848;51.938;15.520;2023-03-09T12:52:29;21.10;;;12.02;;
70420;SDS011;57848;51.938;15.520;2023-03-09T12:55:18;22.50;;;11.35;;
70420;SDS011;57848;51.938;15.520;2023-03-09T13:03:23;20.45;;;10.85;;
70420;SDS011;57848;51.938;15.520;2023-03-09T13:05:54;22.17;;;11.90;;
70420;SDS011;57848;51.938;15.520;2023-03-09T13:08:23;23.70;;;12.10;;
70420;SDS011;57848;51.938;15.520;2023-03-09T13:11:17;22.00;;;11.97;;
70420;SDS011;57848;51.938;15.520;2023-03-09T13:13:52;20.73;;;10.82;;
70420;SDS011;57848;51.938;15.520;2023-03-09T13:29:51;21.83;;;11.63;;
70420;SDS011;57848;51.938;15.520;2023-03-09T13:32:31;22.88;;;10.80;;
70420;SDS011;57848;51.938;15.520;2023-03-09T13:34:59;22.13;;;11.27;;
70420;SDS011;57848;51.938;15.520;2023-03-09T13:37:29;21.33;;;10.93;;
70420;SDS011;57848;51.938;15.520;2023-03-09T13:40:04;24.00;;;12.63;;
70420;SDS011;57848;51.938;15.520;2023-03-09T13:42:49;25.30;;;12.00;;
70420;SDS011;57848;51.938;15.520;2023-03-09T13:45:19;22.52;;;11.23;;
70420;SDS011;57848;51.938;15.520;2023-03-09T13:47:50;23.35;;;12.07;;
70420;SDS011;57848;51.938;15.520;2023-03-09T13:50:20;24.63;;;12.87;;
70420;SDS011;57848;51.938;15.520;2023-03-09T13:53:03;23.90;;;12.63;;
70420;SDS011;57848;51.938;15.520;2023-03-09T13:55:31;23.95;;;12.63;;
70420;SDS011;57848;51.938;15.520;2023-03-09T13:58:12;25.17;;;12.03;;
70420;SDS011;57848;51.938;15.520;2023-03-09T14:00:52;22.92;;;11.25;;
70420;SDS011;57848;51.938;15.520;2023-03-09T14:03:26;23.88;;;12.27;;
70420;SDS011;57848;51.938;15.520;2023-03-09T14:05:57;26.08;;;12.63;;
70420;SDS011;57848;51.938;15.520;2023-03-09T14:08:26;27.70;;;13.38;;
70420;SDS011;57848;51.938;15.520;2023-03-09T14:10:53;29.00;;;13.33;;
70420;SDS011;57848;51.938;15.520;2023-03-09T14:13:25;31.35;;;14.48;;
70420;SDS011;57848;51.938;15.520;2023-03-09T14:15:58;27.02;;;13.35;;
70420;SDS011;57848;51.938;15.520;2023-03-09T14:18:26;26.83;;;13.18;;
70420;SDS011;57848;51.938;15.520;2023-03-09T14:21:29;25.90;;;13.63;;
70420;SDS011;57848;51.938;15.520;2023-03-09T14:26:41;24.83;;;11.70;;
70420;SDS011;57848;51.938;15.520;2023-03-09T14:31:41;24.67;;;12.80;;
70420;SDS011;57848;51.938;15.520;2023-03-09T14:36:50;29.15;;;14.13;;
70420;SDS011;57848;51.938;15.520;2023-03-09T14:39:26;26.45;;;13.95;;
70420;SDS011;57848;51.938;15.520;2023-03-09T14:42:02;28.23;;;13.60;;
70420;SDS011;57848;51.938;15.520;2023-03-09T14:44:43;28.43;;;13.63;;
70420;SDS011;57848;51.938;15.520;2023-03-09T14:47:17;34.88;;;16.75;;
70420;SDS011;57848;51.938;15.520;2023-03-09T14:49:51;76.22;;;34.72;;
70420;SDS011;57848;51.938;15.520;2023-03-09T14:52:18;46.88;;;22.40;;
70420;SDS011;57848;51.938;15.520;2023-03-09T14:54:44;36.40;;;21.83;;
70420;SDS011;57848;51.938;15.520;2023-03-09T14:57:10;40.50;;;23.73;;
70420;SDS011;57848;51.938;15.520;2023-03-09T14:59:37;35.20;;;17.67;;
70420;SDS011;57848;51.938;15.520;2023-03-09T15:02:03;34.57;;;18.17;;
70420;SDS011;57848;51.938;15.520;2023-03-09T15:04:30;36.42;;;17.85;;
70420;SDS011;57848;51.938;15.520;2023-03-09T15:06:56;31.30;;;15.20;;
70420;SDS011;57848;51.938;15.520;2023-03-09T15:09:22;31.15;;;15.13;;
70420;SDS011;57848;51.938;15.520;2023-03-09T15:11:48;28.43;;;13.43;;
70420;SDS011;57848;51.938;15.520;2023-03-09T15:16:56;30.98;;;14.70;;
70420;SDS011;57848;51.938;15.520;2023-03-09T15:19:22;35.43;;;16.90;;
70420;SDS011;57848;51.938;15.520;2023-03-09T15:21:48;31.65;;;16.42;;
70420;SDS011;57848;51.938;15.520;2023-03-09T15:24:19;35.92;;;17.02;;
70420;SDS011;57848;51.938;15.520;2023-03-09T15:26:45;29.13;;;14.10;;
70420;SDS011;57848;51.938;15.520;2023-03-09T15:29:10;38.97;;;15.57;;
70420;SDS011;57848;51.938;15.520;2023-03-09T15:31:36;34.57;;;17.40;;
70420;SDS011;57848;51.938;15.520;2023-03-09T15:34:01;34.10;;;15.53;;
70420;SDS011;57848;51.938;15.520;2023-03-09T15:36:26;38.73;;;16.77;;
70420;SDS011;57848;51.938;15.520;2023-03-09T15:38:52;33.73;;;16.13;;
70420;SDS011;57848;51.938;15.520;2023-03-09T15:41:18;35.88;;;17.33;;
70420;SDS011;57848;51.938;15.520;2023-03-09T15:43:44;31.00;;;15.30;;
70420;SDS011;57848;51.938;15.520;2023-03-09T15:46:09;30.85;;;14.98;;
70420;SDS011;57848;51.938;15.520;2023-03-09T15:48:34;33.27;;;14.93;;
70420;SDS011;57848;51.938;15.520;2023-03-09T15:51:00;34.37;;;17.63;;
70420;SDS011;57848;51.938;15.520;2023-03-09T15:53:27;35.42;;;15.88;;
70420;SDS011;57848;51.938;15.520;2023-03-09T15:56:02;39.20;;;16.97;;
70420;SDS011;57848;51.938;15.520;2023-03-09T15:58:30;34.35;;;15.27;;
70420;SDS011;57848;51.938;15.520;2023-03-09T16:01:15;35.17;;;15.10;;
70420;SDS011;57848;51.938;15.520;2023-03-09T16:03:49;35.80;;;16.38;;
70420;SDS011;57848;51.938;15.520;2023-03-09T16:06:18;34.93;;;16.30;;
70420;SDS011;57848;51.938;15.520;2023-03-09T16:08:45;35.75;;;16.73;;